sensor_id;sensor_type;location;lat;lon;timestamp;P1;durP1;ratioP1;P2;durP2;ratioP2
63801;SDS011;49949;43.060;25.624;2023-04-25T00:01:24;15.57;;;10.70;;
63801;SDS011;49949;43.060;25.624;2023-04-25T00:03:50;11.95;;;9.70;;
63801;SDS011;49949;43.060;25.624;2023-04-25T00:06:16;13.50;;;10.25;;
63801;SDS011;49949;43.060;25.624;2023-04-25T00:08:42;12.18;;;10.13;;
63801;SDS011;49949;43.060;25.624;2023-04-25T00:11:08;12.32;;;8.73;;
63801;SDS011;49949;43.060;25.624;2023-04-25T00:13:34;13.38;;;9.57;;
63801;SDS011;49949;43.060;25.624;2023-04-25T00:16:00;13.65;;;9.40;;
63801;SDS011;49949;43.060;25.624;2023-04-25T00:18:27;15.15;;;9.27;;
63801;SDS011;49949;43.060;25.624;2023-04-25T00:20:54;12.25;;;9.98;;
63801;SDS011;49949;43.060;25.624;2023-04-25T00:23:20;15.23;;;10.90;;
63801;SDS011;49949;43.060;25.624;2023-04-25T00:25:48;15.38;;;10.75;;
63801;SDS011;49949;43.060;25.624;2023-04-25T00:28:15;13.52;;;9.40;;
63801;SDS011;49949;43.060;25.624;2023-04-25T00:30:41;12.63;;;7.90;;
63801;SDS011;49949;43.060;25.624;2023-04-25T00:33:08;17.38;;;10.52;;
63801;SDS011;49949;43.060;25.624;2023-04-25T00:35:35;14.05;;;10.48;;
63801;SDS011;49949;43.060;25.624;2023-04-25T00:38:00;16.63;;;11.75;;
63801;SDS011;49949;43.060;25.624;2023-04-25T00:40:27;13.25;;;10.82;;
63801;SDS011;49949;43.060;25.624;2023-04-25T00:42:53;17.38;;;10.63;;
63801;SDS011;49949;43.060;25.624;2023-04-25T00:45:19;18.92;;;11.00;;
63801;SDS011;49949;43.060;25.624;2023-04-25T00:47:46;17.42;;;11.77;;
63801;SDS011;49949;43.060;25.624;2023-04-25T00:50:12;16.55;;;11.45;;
63801;SDS011;49949;43.060;25.624;2023-04-25T00:52:43;15.65;;;10.23;;
63801;SDS011;49949;43.060;25.624;2023-04-25T00:55:10;16.92;;;10.38;;
63801;SDS011;49949;43.060;25.624;2023-04-25T00:57:36;16.00;;;10.32;;
63801;SDS011;49949;43.060;25.624;2023-04-25T01:00:03;16.15;;;10.80;;
63801;SDS011;49949;43.060;25.624;2023-04-25T01:02:31;14.90;;;10.52;;
63801;SDS011;49949;43.060;25.624;2023-04-25T01:05:00;12.38;;;10.68;;
63801;SDS011;49949;43.060;25.624;2023-04-25T01:07:27;15.32;;;10.52;;
63801;SDS011;49949;43.060;25.624;2023-04-25T01:09:52;16.85;;;10.63;;
63801;SDS011;49949;43.060;25.624;2023-04-25T01:12:18;10.93;;;7.78;;
63801;SDS011;49949;43.060;25.624;2023-04-25T01:14:44;13.82;;;8.23;;
63801;SDS011;49949;43.060;25.624;2023-04-25T01:17:10;12.10;;;8.95;;
63801;SDS011;49949;43.060;25.624;2023-04-25T01:19:36;15.18;;;11.90;;
63801;SDS011;49949;43.060;25.624;2023-04-25T01:22:02;16.55;;;11.55;;
63801;SDS011;49949;43.060;25.624;2023-04-25T01:24:29;15.18;;;11.82;;
63801;SDS011;49949;43.060;25.624;2023-04-25T01:26:58;21.08;;;12.25;;
63801;SDS011;49949;43.060;25.624;2023-04-25T01:29:25;13.10;;;10.48;;
63801;SDS011;49949;43.060;25.624;2023-04-25T01:31:52;17.27;;;10.27;;
63801;SDS011;49949;43.060;25.624;2023-04-25T01:34:18;15.73;;;10.10;;
63801;SDS011;49949;43.060;25.624;2023-04-25T01:36:44;14.63;;;10.40;;
63801;SDS011;49949;43.060;25.624;2023-04-25T01:39:11;12.30;;;9.70;;
63801;SDS011;49949;43.060;25.624;2023-04-25T01:41:37;16.85;;;12.07;;
63801;SDS011;49949;43.060;25.624;2023-04-25T01:44:02;16.77;;;12.35;;
63801;SDS011;49949;43.060;25.624;2023-04-25T01:46:29;16.73;;;11.85;;
63801;SDS011;49949;43.060;25.624;2023-04-25T01:48:55;15.02;;;11.63;;
63801;SDS011;49949;43.060;25.624;2023-04-25T01:51:21;18.25;;;11.77;;
63801;SDS011;49949;43.060;25.624;2023-04-25T01:53:47;14.73;;;10.63;;
63801;SDS011;49949;43.060;25.624;2023-04-25T01:56:12;12.60;;;10.85;;
63801;SDS011;49949;43.060;25.624;2023-04-25T01:58:38;13.50;;;11.23;;
63801;SDS011;49949;43.060;25.624;2023-04-25T02:01:03;12.85;;;10.15;;
63801;SDS011;49949;43.060;25.624;2023-04-25T02:03:31;17.90;;;11.93;;
63801;SDS011;49949;43.060;25.624;2023-04-25T02:05:57;16.23;;;11.90;;
63801;SDS011;49949;43.060;25.624;2023-04-25T02:08:23;19.60;;;11.02;;
63801;SDS011;49949;43.060;25.624;2023-04-25T02:10:50;16.02;;;11.95;;
63801;SDS011;49949;43.060;25.624;2023-04-25T02:13:16;18.67;;;12.70;;
63801;SDS011;49949;43.060;25.624;2023-04-25T02:15:42;16.75;;;11.88;;
63801;SDS011;49949;43.060;25.624;2023-04-25T02:18:07;17.50;;;11.23;;
63801;SDS011;49949;43.060;25.624;2023-04-25T02:20:35;18.65;;;12.68;;
63801;SDS011;49949;43.060;25.624;2023-04-25T02:23:02;18.77;;;12.43;;
63801;SDS011;49949;43.060;25.624;2023-04-25T02:25:28;19.95;;;12.15;;
63801;SDS011;49949;43.060;25.624;2023-04-25T02:27:53;16.23;;;12.02;;
63801;SDS011;49949;43.060;25.624;2023-04-25T02:30:19;16.83;;;12.27;;
63801;SDS011;49949;43.060;25.624;2023-04-25T02:32:45;20.42;;;13.30;;
63801;SDS011;49949;43.060;25.624;2023-04-25T02:35:11;22.90;;;13.20;;
63801;SDS011;49949;43.060;25.624;2023-04-25T02:37:37;19.70;;;13.43;;
63801;SDS011;49949;43.060;25.624;2023-04-25T02:40:04;18.00;;;13.60;;
63801;SDS011;49949;43.060;25.624;2023-04-25T02:42:31;19.05;;;13.27;;
63801;SDS011;49949;43.060;25.624;2023-04-25T02:44:57;23.20;;;15.25;;
63801;SDS011;49949;43.060;25.624;2023-04-25T02:47:23;17.65;;;14.07;;
63801;SDS011;49949;43.060;25.624;2023-04-25T02:49:49;18.73;;;12.07;;
63801;SDS011;49949;43.060;25.624;2023-04-25T02:52:15;15.73;;;12.52;;
63801;SDS011;49949;43.060;25.624;2023-04-25T02:54:41;14.63;;;11.77;;
63801;SDS011;49949;43.060;25.624;2023-04-25T02:57:06;16.20;;;11.52;;
63801;SDS011;49949;43.060;25.624;2023-04-25T02:59:32;16.48;;;12.63;;
63801;SDS011;49949;43.060;25.624;2023-04-25T03:01:58;19.30;;;12.48;;
63801;SDS011;49949;43.060;25.624;2023-04-25T03:04:24;20.58;;;12.52;;
63801;SDS011;49949;43.060;25.624;2023-04-25T03:06:50;15.38;;;12.25;;
63801;SDS011;49949;43.060;25.624;2023-04-25T03:09:16;22.35;;;12.93;;
63801;SDS011;49949;43.060;25.624;2023-04-25T03:11:43;16.25;;;11.38;;
63801;SDS011;49949;43.060;25.624;2023-04-25T03:14:09;21.48;;;11.85;;
63801;SDS011;49949;43.060;25.624;2023-04-25T03:16:35;23.92;;;11.85;;
63801;SDS011;49949;43.060;25.624;2023-04-25T03:19:01;16.05;;;12.13;;
63801;SDS011;49949;43.060;25.624;2023-04-25T03:21:27;17.15;;;12.60;;
63801;SDS011;49949;43.060;25.624;2023-04-25T03:23:54;17.98;;;13.70;;
63801;SDS011;49949;43.060;25.624;2023-04-25T03:26:19;21.98;;;12.90;;
63801;SDS011;49949;43.060;25.624;2023-04-25T03:28:45;20.30;;;13.55;;
63801;SDS011;49949;43.060;25.624;2023-04-25T03:31:11;20.80;;;13.00;;
63801;SDS011;49949;43.060;25.624;2023-04-25T03:33:37;19.65;;;13.68;;
63801;SDS011;49949;43.060;25.624;2023-04-25T03:36:02;16.23;;;11.27;;
63801;SDS011;49949;43.060;25.624;2023-04-25T03:38:28;14.38;;;10.70;;
63801;SDS011;49949;43.060;25.624;2023-04-25T03:40:54;18.35;;;12.13;;
63801;SDS011;49949;43.060;25.624;2023-04-25T03:43:21;17.17;;;12.38;;
63801;SDS011;49949;43.060;25.624;2023-04-25T03:45:47;20.38;;;13.30;;
63801;SDS011;49949;43.060;25.624;2023-04-25T03:48:12;22.17;;;13.43;;
63801;SDS011;49949;43.060;25.624;2023-04-25T03:50:38;18.25;;;13.35;;
63801;SDS011;49949;43.060;25.624;2023-04-25T03:53:04;19.50;;;13.38;;
63801;SDS011;49949;43.060;25.624;2023-04-25T03:55:29;22.20;;;14.07;;
63801;SDS011;49949;43.060;25.624;2023-04-25T03:57:56;22.25;;;13.57;;
63801;SDS011;49949;43.060;25.624;2023-04-25T04:00:23;17.33;;;13.43;;
63801;SDS011;49949;43.060;25.624;2023-04-25T04:02:49;24.35;;;13.73;;
63801;SDS011;49949;43.060;25.624;2023-04-25T04:05:14;20.48;;;14.00;;
63801;SDS011;49949;43.060;25.624;2023-04-25T04:07:40;18.17;;;13.32;;
63801;SDS011;49949;43.060;25.624;2023-04-25T04:10:07;25.45;;;13.68;;
63801;SDS011;49949;43.060;25.624;2023-04-25T04:12:37;27.60;;;14.05;;
63801;SDS011;49949;43.060;25.624;2023-04-25T04:15:03;18.20;;;13.60;;
63801;SDS011;49949;43.060;25.624;2023-04-25T04:17:30;19.45;;;13.95;;
63801;SDS011;49949;43.060;25.624;2023-04-25T04:19:56;21.75;;;14.35;;
63801;SDS011;49949;43.060;25.624;2023-04-25T04:22:23;23.92;;;13.38;;
63801;SDS011;49949;43.060;25.624;2023-04-25T04:24:49;20.20;;;12.90;;
63801;SDS011;49949;43.060;25.624;2023-04-25T04:27:18;16.65;;;10.70;;
63801;SDS011;49949;43.060;25.624;2023-04-25T04:29:45;25.00;;;13.38;;
63801;SDS011;49949;43.060;25.624;2023-04-25T04:32:11;19.60;;;12.43;;
63801;SDS011;49949;43.060;25.624;2023-04-25T04:34:38;20.13;;;13.02;;
63801;SDS011;49949;43.060;25.624;2023-04-25T04:37:04;19.25;;;13.23;;
63801;SDS011;49949;43.060;25.624;2023-04-25T04:39:31;21.20;;;13.27;;
63801;SDS011;49949;43.060;25.624;2023-04-25T04:41:58;22.13;;;14.82;;
63801;SDS011;49949;43.060;25.624;2023-04-25T04:44:24;23.77;;;14.90;;
63801;SDS011;49949;43.060;25.624;2023-04-25T04:46:50;22.92;;;13.73;;
63801;SDS011;49949;43.060;25.624;2023-04-25T04:49:16;23.25;;;15.02;;
63801;SDS011;49949;43.060;25.624;2023-04-25T04:51:42;21.55;;;15.77;;
63801;SDS011;49949;43.060;25.624;2023-04-25T04:54:11;15.13;;;12.75;;
63801;SDS011;49949;43.060;25.624;2023-04-25T04:56:37;21.55;;;13.65;;
63801;SDS011;49949;43.060;25.624;2023-04-25T04:59:03;19.45;;;14.00;;
63801;SDS011;49949;43.060;25.624;2023-04-25T05:01:29;28.60;;;18.08;;
63801;SDS011;49949;43.060;25.624;2023-04-25T05:03:55;23.33;;;16.48;;
63801;SDS011;49949;43.060;25.624;2023-04-25T05:06:25;22.05;;;15.27;;
63801;SDS011;49949;43.060;25.624;2023-04-25T05:08:54;27.77;;;14.70;;
63801;SDS011;49949;43.060;25.624;2023-04-25T05:11:21;21.52;;;14.93;;
63801;SDS011;49949;43.060;25.624;2023-04-25T05:13:48;23.52;;;15.68;;
63801;SDS011;49949;43.060;25.624;2023-04-25T05:16:14;36.40;;;16.63;;
63801;SDS011;49949;43.060;25.624;2023-04-25T05:18:40;164.88;;;63.45;;
63801;SDS011;49949;43.060;25.624;2023-04-25T05:21:07;76.03;;;33.00;;
63801;SDS011;49949;43.060;25.624;2023-04-25T05:23:33;45.13;;;24.30;;
63801;SDS011;49949;43.060;25.624;2023-04-25T05:25:59;26.02;;;17.20;;
63801;SDS011;49949;43.060;25.624;2023-04-25T05:28:24;51.70;;;22.27;;
63801;SDS011;49949;43.060;25.624;2023-04-25T05:30:50;80.20;;;35.13;;
63801;SDS011;49949;43.060;25.624;2023-04-25T05:33:16;61.10;;;28.10;;
63801;SDS011;49949;43.060;25.624;2023-04-25T05:35:42;78.25;;;35.17;;
63801;SDS011;49949;43.060;25.624;2023-04-25T05:38:08;80.85;;;36.30;;
63801;SDS011;49949;43.060;25.624;2023-04-25T05:40:34;67.13;;;29.88;;
63801;SDS011;49949;43.060;25.624;2023-04-25T05:42:59;56.45;;;28.63;;
63801;SDS011;49949;43.060;25.624;2023-04-25T05:45:25;37.70;;;21.20;;
63801;SDS011;49949;43.060;25.624;2023-04-25T05:47:51;26.98;;;15.25;;
63801;SDS011;49949;43.060;25.624;2023-04-25T05:50:17;21.60;;;15.10;;
63801;SDS011;49949;43.060;25.624;2023-04-25T05:52:42;23.20;;;16.05;;
63801;SDS011;49949;43.060;25.624;2023-04-25T05:55:08;25.42;;;18.60;;
63801;SDS011;49949;43.060;25.624;2023-04-25T05:57:34;25.48;;;17.23;;
63801;SDS011;49949;43.060;25.624;2023-04-25T06:00:00;22.35;;;13.80;;
63801;SDS011;49949;43.060;25.624;2023-04-25T06:02:26;24.55;;;15.25;;
63801;SDS011;49949;43.060;25.624;2023-04-25T06:04:52;24.35;;;16.65;;
63801;SDS011;49949;43.060;25.624;2023-04-25T06:07:18;22.58;;;15.07;;
63801;SDS011;49949;43.060;25.624;2023-04-25T06:09:44;18.67;;;11.68;;
63801;SDS011;49949;43.060;25.624;2023-04-25T06:12:10;14.57;;;9.25;;
63801;SDS011;49949;43.060;25.624;2023-04-25T06:14:36;14.05;;;7.75;;
63801;SDS011;49949;43.060;25.624;2023-04-25T06:17:02;11.82;;;7.47;;
63801;SDS011;49949;43.060;25.624;2023-04-25T06:19:33;8.90;;;6.53;;
63801;SDS011;49949;43.060;25.624;2023-04-25T06:22:00;11.20;;;5.47;;
63801;SDS011;49949;43.060;25.624;2023-04-25T06:24:26;17.85;;;7.20;;
63801;SDS011;49949;43.060;25.624;2023-04-25T06:26:51;17.77;;;7.88;;
63801;SDS011;49949;43.060;25.624;2023-04-25T06:29:17;16.52;;;7.10;;
63801;SDS011;49949;43.060;25.624;2023-04-25T06:31:43;13.93;;;5.25;;
63801;SDS011;49949;43.060;25.624;2023-04-25T06:34:09;9.57;;;5.45;;
63801;SDS011;49949;43.060;25.624;2023-04-25T06:36:35;15.27;;;5.90;;
63801;SDS011;49949;43.060;25.624;2023-04-25T06:39:00;8.93;;;4.03;;
63801;SDS011;49949;43.060;25.624;2023-04-25T06:41:26;5.93;;;3.58;;
63801;SDS011;49949;43.060;25.624;2023-04-25T06:43:52;7.00;;;3.50;;
63801;SDS011;49949;43.060;25.624;2023-04-25T06:46:17;5.25;;;3.47;;
63801;SDS011;49949;43.060;25.624;2023-04-25T06:48:43;7.82;;;3.58;;
63801;SDS011;49949;43.060;25.624;2023-04-25T06:51:09;4.15;;;3.28;;
63801;SDS011;49949;43.060;25.624;2023-04-25T06:53:35;6.22;;;3.45;;
63801;SDS011;49949;43.060;25.624;2023-04-25T06:56:01;12.35;;;3.72;;
63801;SDS011;49949;43.060;25.624;2023-04-25T06:58:28;8.65;;;3.42;;
63801;SDS011;49949;43.060;25.624;2023-04-25T07:00:53;10.27;;;3.80;;
63801;SDS011;49949;43.060;25.624;2023-04-25T07:03:19;4.53;;;3.13;;
63801;SDS011;49949;43.060;25.624;2023-04-25T07:05:45;6.82;;;3.22;;
63801;SDS011;49949;43.060;25.624;2023-04-25T07:08:11;4.38;;;3.03;;
63801;SDS011;49949;43.060;25.624;2023-04-25T07:10:37;10.82;;;3.30;;
63801;SDS011;49949;43.060;25.624;2023-04-25T07:13:02;10.70;;;3.00;;
63801;SDS011;49949;43.060;25.624;2023-04-25T07:15:28;51.75;;;5.63;;
63801;SDS011;49949;43.060;25.624;2023-04-25T07:17:54;6.72;;;3.15;;
63801;SDS011;49949;43.060;25.624;2023-04-25T07:20:19;15.80;;;4.03;;
63801;SDS011;49949;43.060;25.624;2023-04-25T07:22:45;8.13;;;3.05;;
63801;SDS011;49949;43.060;25.624;2023-04-25T07:25:11;5.68;;;3.30;;
63801;SDS011;49949;43.060;25.624;2023-04-25T07:27:37;8.95;;;2.72;;
63801;SDS011;49949;43.060;25.624;2023-04-25T07:30:03;7.07;;;3.00;;
63801;SDS011;49949;43.060;25.624;2023-04-25T07:32:29;11.00;;;3.20;;
63801;SDS011;49949;43.060;25.624;2023-04-25T07:34:55;5.30;;;2.80;;
63801;SDS011;49949;43.060;25.624;2023-04-25T07:37:21;49.67;;;5.07;;
63801;SDS011;49949;43.060;25.624;2023-04-25T07:39:47;9.63;;;2.90;;
63801;SDS011;49949;43.060;25.624;2023-04-25T07:42:13;10.43;;;2.40;;
63801;SDS011;49949;43.060;25.624;2023-04-25T07:44:38;7.90;;;2.83;;
63801;SDS011;49949;43.060;25.624;2023-04-25T07:47:08;7.35;;;2.75;;
63801;SDS011;49949;43.060;25.624;2023-04-25T07:49:37;9.13;;;2.50;;
63801;SDS011;49949;43.060;25.624;2023-04-25T07:52:03;17.00;;;2.88;;
63801;SDS011;49949;43.060;25.624;2023-04-25T07:54:31;13.75;;;2.30;;
63801;SDS011;49949;43.060;25.624;2023-04-25T07:56:57;6.95;;;2.47;;
63801;SDS011;49949;43.060;25.624;2023-04-25T07:59:23;8.38;;;2.53;;
63801;SDS011;49949;43.060;25.624;2023-04-25T08:01:49;6.45;;;2.22;;
63801;SDS011;49949;43.060;25.624;2023-04-25T08:04:15;5.30;;;2.70;;
63801;SDS011;49949;43.060;25.624;2023-04-25T08:06:41;5.03;;;1.73;;
63801;SDS011;49949;43.060;25.624;2023-04-25T08:09:07;1.40;;;1.30;;
63801;SDS011;49949;43.060;25.624;2023-04-25T08:11:34;4.65;;;1.70;;
63801;SDS011;49949;43.060;25.624;2023-04-25T08:14:00;8.23;;;2.50;;
63801;SDS011;49949;43.060;25.624;2023-04-25T08:16:26;20.98;;;3.40;;
63801;SDS011;49949;43.060;25.624;2023-04-25T08:18:52;5.60;;;3.03;;
63801;SDS011;49949;43.060;25.624;2023-04-25T08:21:18;19.33;;;3.83;;
63801;SDS011;49949;43.060;25.624;2023-04-25T08:23:44;15.63;;;3.45;;
63801;SDS011;49949;43.060;25.624;2023-04-25T08:26:10;4.38;;;1.10;;
63801;SDS011;49949;43.060;25.624;2023-04-25T08:28:36;1.42;;;0.80;;
63801;SDS011;49949;43.060;25.624;2023-04-25T08:31:01;2.10;;;1.88;;
63801;SDS011;49949;43.060;25.624;2023-04-25T08:33:27;51.38;;;3.30;;
63801;SDS011;49949;43.060;25.624;2023-04-25T08:35:53;12.63;;;1.65;;
63801;SDS011;49949;43.060;25.624;2023-04-25T08:38:19;7.40;;;2.80;;
63801;SDS011;49949;43.060;25.624;2023-04-25T08:40:46;4.30;;;2.08;;
63801;SDS011;49949;43.060;25.624;2023-04-25T08:43:15;4.32;;;1.00;;
63801;SDS011;49949;43.060;25.624;2023-04-25T08:45:43;7.05;;;1.38;;
63801;SDS011;49949;43.060;25.624;2023-04-25T08:48:11;8.68;;;1.98;;
63801;SDS011;49949;43.060;25.624;2023-04-25T08:50:45;9.32;;;1.50;;
63801;SDS011;49949;43.060;25.624;2023-04-25T08:53:15;7.38;;;2.08;;
63801;SDS011;49949;43.060;25.624;2023-04-25T08:55:46;12.25;;;1.40;;
63801;SDS011;49949;43.060;25.624;2023-04-25T08:58:13;2.15;;;0.95;;
63801;SDS011;49949;43.060;25.624;2023-04-25T09:00:39;5.38;;;1.05;;
63801;SDS011;49949;43.060;25.624;2023-04-25T09:03:05;81.45;;;4.85;;
63801;SDS011;49949;43.060;25.624;2023-04-25T09:05:34;14.48;;;1.83;;
63801;SDS011;49949;43.060;25.624;2023-04-25T09:08:00;3.00;;;1.10;;
63801;SDS011;49949;43.060;25.624;2023-04-25T09:10:26;11.23;;;1.00;;
63801;SDS011;49949;43.060;25.624;2023-04-25T09:13:03;11.95;;;1.40;;
63801;SDS011;49949;43.060;25.624;2023-04-25T09:15:30;4.07;;;0.80;;
63801;SDS011;49949;43.060;25.624;2023-04-25T09:17:56;5.78;;;1.13;;
63801;SDS011;49949;43.060;25.624;2023-04-25T09:20:23;1.33;;;1.00;;
63801;SDS011;49949;43.060;25.624;2023-04-25T09:22:49;2.90;;;1.67;;
63801;SDS011;49949;43.060;25.624;2023-04-25T09:25:27;1.67;;;1.45;;
63801;SDS011;49949;43.060;25.624;2023-04-25T09:28:03;6.53;;;1.60;;
63801;SDS011;49949;43.060;25.624;2023-04-25T09:30:30;6.65;;;1.73;;
63801;SDS011;49949;43.060;25.624;2023-04-25T09:32:57;3.15;;;1.10;;
63801;SDS011;49949;43.060;25.624;2023-04-25T09:35:28;2.63;;;1.40;;
63801;SDS011;49949;43.060;25.624;2023-04-25T09:37:55;4.65;;;1.08;;
63801;SDS011;49949;43.060;25.624;2023-04-25T09:40:21;10.57;;;1.30;;
63801;SDS011;49949;43.060;25.624;2023-04-25T09:42:46;89.93;;;5.35;;
63801;SDS011;49949;43.060;25.624;2023-04-25T09:45:12;1.02;;;0.80;;
63801;SDS011;49949;43.060;25.624;2023-04-25T09:47:40;1.42;;;1.20;;
63801;SDS011;49949;43.060;25.624;2023-04-25T09:50:15;36.10;;;1.92;;
63801;SDS011;49949;43.060;25.624;2023-04-25T09:52:42;12.43;;;1.45;;
63801;SDS011;49949;43.060;25.624;2023-04-25T09:55:08;110.40;;;6.18;;
63801;SDS011;49949;43.060;25.624;2023-04-25T09:57:34;45.47;;;2.65;;
63801;SDS011;49949;43.060;25.624;2023-04-25T10:00:04;10.63;;;1.40;;
63801;SDS011;49949;43.060;25.624;2023-04-25T10:02:34;12.23;;;2.33;;
63801;SDS011;49949;43.060;25.624;2023-04-25T10:05:05;22.65;;;2.85;;
63801;SDS011;49949;43.060;25.624;2023-04-25T10:07:32;24.73;;;3.45;;
63801;SDS011;49949;43.060;25.624;2023-04-25T10:10:03;11.27;;;1.88;;
63801;SDS011;49949;43.060;25.624;2023-04-25T10:12:31;2.67;;;1.17;;
63801;SDS011;49949;43.060;25.624;2023-04-25T10:14:58;18.63;;;3.72;;
63801;SDS011;49949;43.060;25.624;2023-04-25T10:17:25;32.95;;;10.93;;
63801;SDS011;49949;43.060;25.624;2023-04-25T10:19:52;20.75;;;8.85;;
63801;SDS011;49949;43.060;25.624;2023-04-25T10:22:29;18.63;;;5.88;;
63801;SDS011;49949;43.060;25.624;2023-04-25T10:24:57;15.00;;;6.10;;
63801;SDS011;49949;43.060;25.624;2023-04-25T10:27:24;9.88;;;6.20;;
63801;SDS011;49949;43.060;25.624;2023-04-25T10:30:03;22.92;;;10.30;;
63801;SDS011;49949;43.060;25.624;2023-04-25T10:32:34;34.83;;;14.63;;
63801;SDS011;49949;43.060;25.624;2023-04-25T10:35:23;42.47;;;19.20;;
63801;SDS011;49949;43.060;25.624;2023-04-25T10:40:24;52.95;;;24.27;;
63801;SDS011;49949;43.060;25.624;2023-04-25T10:42:53;21.00;;;9.43;;
63801;SDS011;49949;43.060;25.624;2023-04-25T10:45:22;14.82;;;7.80;;
63801;SDS011;49949;43.060;25.624;2023-04-25T10:47:47;15.63;;;8.25;;
63801;SDS011;49949;43.060;25.624;2023-04-25T10:50:14;17.38;;;9.40;;
63801;SDS011;49949;43.060;25.624;2023-04-25T10:52:43;15.65;;;9.93;;
63801;SDS011;49949;43.060;25.624;2023-04-25T10:55:09;20.35;;;13.23;;
63801;SDS011;49949;43.060;25.624;2023-04-25T10:57:42;27.33;;;17.90;;
63801;SDS011;49949;43.060;25.624;2023-04-25T11:00:12;22.77;;;14.60;;
63801;SDS011;49949;43.060;25.624;2023-04-25T11:02:47;19.55;;;11.60;;
63801;SDS011;49949;43.060;25.624;2023-04-25T11:07:56;10.45;;;6.13;;
63801;SDS011;49949;43.060;25.624;2023-04-25T11:10:26;7.03;;;3.47;;
63801;SDS011;49949;43.060;25.624;2023-04-25T11:12:53;8.77;;;5.55;;
63801;SDS011;49949;43.060;25.624;2023-04-25T11:15:18;4.72;;;4.07;;
63801;SDS011;49949;43.060;25.624;2023-04-25T11:17:44;5.75;;;3.35;;
63801;SDS011;49949;43.060;25.624;2023-04-25T11:20:11;4.95;;;4.18;;
63801;SDS011;49949;43.060;25.624;2023-04-25T11:22:38;7.20;;;3.78;;
63801;SDS011;49949;43.060;25.624;2023-04-25T11:25:08;3.22;;;2.92;;
63801;SDS011;49949;43.060;25.624;2023-04-25T11:27:48;4.93;;;3.95;;
63801;SDS011;49949;43.060;25.624;2023-04-25T11:30:18;3.90;;;3.53;;
63801;SDS011;49949;43.060;25.624;2023-04-25T11:32:44;4.13;;;2.30;;
63801;SDS011;49949;43.060;25.624;2023-04-25T11:35:10;4.97;;;2.20;;
63801;SDS011;49949;43.060;25.624;2023-04-25T11:37:38;5.05;;;2.00;;
63801;SDS011;49949;43.060;25.624;2023-04-25T11:40:05;2.08;;;1.85;;
63801;SDS011;49949;43.060;25.624;2023-04-25T11:42:32;2.13;;;2.03;;
63801;SDS011;49949;43.060;25.624;2023-04-25T11:44:58;3.72;;;2.03;;
63801;SDS011;49949;43.060;25.624;2023-04-25T11:47:31;2.70;;;1.83;;
63801;SDS011;49949;43.060;25.624;2023-04-25T11:50:01;1.42;;;1.35;;
63801;SDS011;49949;43.060;25.624;2023-04-25T11:52:55;2.40;;;1.67;;
63801;SDS011;49949;43.060;25.624;2023-04-25T11:55:21;1.73;;;1.38;;
63801;SDS011;49949;43.060;25.624;2023-04-25T11:57:48;1.58;;;1.40;;
63801;SDS011;49949;43.060;25.624;2023-04-25T12:00:16;1.40;;;1.30;;
63801;SDS011;49949;43.060;25.624;2023-04-25T12:02:44;3.55;;;1.52;;
63801;SDS011;49949;43.060;25.624;2023-04-25T12:05:15;10.50;;;1.70;;
63801;SDS011;49949;43.060;25.624;2023-04-25T12:07:41;6.30;;;1.25;;
63801;SDS011;49949;43.060;25.624;2023-04-25T12:10:11;3.28;;;1.50;;
63801;SDS011;49949;43.060;25.624;2023-04-25T12:12:41;1.23;;;1.00;;
63801;SDS011;49949;43.060;25.624;2023-04-25T12:15:12;1.30;;;1.20;;
63801;SDS011;49949;43.060;25.624;2023-04-25T12:17:48;2.50;;;1.40;;
63801;SDS011;49949;43.060;25.624;2023-04-25T12:20:16;2.83;;;1.40;;
63801;SDS011;49949;43.060;25.624;2023-04-25T12:22:45;4.75;;;1.40;;
63801;SDS011;49949;43.060;25.624;2023-04-25T12:33:35;2.53;;;1.48;;
63801;SDS011;49949;43.060;25.624;2023-04-25T12:36:02;1.85;;;1.45;;
63801;SDS011;49949;43.060;25.624;2023-04-25T12:38:35;4.32;;;1.30;;
63801;SDS011;49949;43.060;25.624;2023-04-25T12:41:02;1.95;;;1.45;;
63801;SDS011;49949;43.060;25.624;2023-04-25T12:43:28;1.98;;;1.40;;
63801;SDS011;49949;43.060;25.624;2023-04-25T12:45:54;5.35;;;1.42;;
63801;SDS011;49949;43.060;25.624;2023-04-25T12:48:21;2.08;;;1.58;;
63801;SDS011;49949;43.060;25.624;2023-04-25T12:50:48;3.53;;;2.20;;
63801;SDS011;49949;43.060;25.624;2023-04-25T12:53:15;5.03;;;2.28;;
63801;SDS011;49949;43.060;25.624;2023-04-25T12:55:50;26.85;;;2.50;;
63801;SDS011;49949;43.060;25.624;2023-04-25T12:58:16;2.20;;;2.00;;
63801;SDS011;49949;43.060;25.624;2023-04-25T13:00:43;3.30;;;2.17;;
63801;SDS011;49949;43.060;25.624;2023-04-25T13:03:10;4.60;;;2.08;;
63801;SDS011;49949;43.060;25.624;2023-04-25T13:05:37;3.40;;;2.00;;
63801;SDS011;49949;43.060;25.624;2023-04-25T13:08:03;5.88;;;2.70;;
63801;SDS011;49949;43.060;25.624;2023-04-25T13:10:29;7.28;;;2.83;;
63801;SDS011;49949;43.060;25.624;2023-04-25T13:12:55;10.05;;;2.28;;
63801;SDS011;49949;43.060;25.624;2023-04-25T13:15:21;6.97;;;2.55;;
63801;SDS011;49949;43.060;25.624;2023-04-25T13:17:48;7.28;;;2.58;;
63801;SDS011;49949;43.060;25.624;2023-04-25T13:20:13;3.67;;;2.42;;
63801;SDS011;49949;43.060;25.624;2023-04-25T13:22:40;8.15;;;3.47;;
63801;SDS011;49949;43.060;25.624;2023-04-25T13:25:07;9.73;;;4.07;;
63801;SDS011;49949;43.060;25.624;2023-04-25T13:27:33;16.70;;;3.55;;
63801;SDS011;49949;43.060;25.624;2023-04-25T13:30:01;5.22;;;2.70;;
63801;SDS011;49949;43.060;25.624;2023-04-25T13:32:32;8.73;;;3.15;;
63801;SDS011;49949;43.060;25.624;2023-04-25T13:35:06;3.05;;;2.47;;
63801;SDS011;49949;43.060;25.624;2023-04-25T13:37:33;7.65;;;3.80;;
63801;SDS011;49949;43.060;25.624;2023-04-25T13:40:03;8.48;;;3.03;;
63801;SDS011;49949;43.060;25.624;2023-04-25T13:42:34;13.27;;;3.83;;
63801;SDS011;49949;43.060;25.624;2023-04-25T13:45:01;4.93;;;3.65;;
63801;SDS011;49949;43.060;25.624;2023-04-25T13:47:27;4.15;;;3.72;;
63801;SDS011;49949;43.060;25.624;2023-04-25T13:49:53;9.48;;;4.07;;
63801;SDS011;49949;43.060;25.624;2023-04-25T13:52:19;4.68;;;3.20;;
63801;SDS011;49949;43.060;25.624;2023-04-25T13:54:45;5.63;;;3.92;;
63801;SDS011;49949;43.060;25.624;2023-04-25T13:57:11;12.70;;;4.53;;
63801;SDS011;49949;43.060;25.624;2023-04-25T13:59:38;9.13;;;4.07;;
63801;SDS011;49949;43.060;25.624;2023-04-25T14:02:04;9.38;;;4.05;;
63801;SDS011;49949;43.060;25.624;2023-04-25T14:04:30;5.35;;;3.45;;
63801;SDS011;49949;43.060;25.624;2023-04-25T14:06:55;4.28;;;3.10;;
63801;SDS011;49949;43.060;25.624;2023-04-25T14:09:21;9.45;;;3.30;;
63801;SDS011;49949;43.060;25.624;2023-04-25T14:11:51;2.75;;;2.50;;
63801;SDS011;49949;43.060;25.624;2023-04-25T14:14:17;3.42;;;3.13;;
63801;SDS011;49949;43.060;25.624;2023-04-25T14:16:44;6.18;;;2.90;;
63801;SDS011;49949;43.060;25.624;2023-04-25T14:19:10;3.45;;;2.90;;
63801;SDS011;49949;43.060;25.624;2023-04-25T14:21:35;3.55;;;2.88;;
63801;SDS011;49949;43.060;25.624;2023-04-25T14:24:01;5.13;;;3.08;;
63801;SDS011;49949;43.060;25.624;2023-04-25T14:26:27;5.05;;;3.60;;
63801;SDS011;49949;43.060;25.624;2023-04-25T14:28:52;3.00;;;2.78;;
63801;SDS011;49949;43.060;25.624;2023-04-25T14:31:18;10.57;;;2.83;;
63801;SDS011;49949;43.060;25.624;2023-04-25T14:33:44;5.88;;;3.28;;